sensor_id;sensor_type;location;lat;lon;timestamp;temperature;humidity
18002;DHT22;9126;48.160;17.130;2022-10-03T00:01:15;15.00;73.10
18002;DHT22;9126;48.160;17.130;2022-10-03T00:03:48;15.00;73.00
18002;DHT22;9126;48.160;17.130;2022-10-03T00:06:27;15.00;72.90
18002;DHT22;9126;48.160;17.130;2022-10-03T00:09:18;14.90;72.90
18002;DHT22;9126;48.160;17.130;2022-10-03T00:11:56;14.90;73.00
18002;DHT22;9126;48.160;17.130;2022-10-03T00:14:33;14.90;73.00
18002;DHT22;9126;48.160;17.130;2022-10-03T00:17:08;14.90;72.90
18002;DHT22;9126;48.160;17.130;2022-10-03T00:19:43;14.90;72.90
18002;DHT22;9126;48.160;17.130;2022-10-03T00:22:21;14.90;72.90
18002;DHT22;9126;48.160;17.130;2022-10-03T00:25:01;14.80;72.90
18002;DHT22;9126;48.160;17.130;2022-10-03T00:27:35;14.80;72.90
18002;DHT22;9126;48.160;17.130;2022-10-03T00:30:14;14.80;72.90
18002;DHT22;9126;48.160;17.130;2022-10-03T00:33:05;14.80;72.90
18002;DHT22;9126;48.160;17.130;2022-10-03T00:35:41;14.80;72.90
18002;DHT22;9126;48.160;17.130;2022-10-03T00:38:26;14.70;72.90
18002;DHT22;9126;48.160;17.130;2022-10-03T00:47:27;14.70;72.90
18002;DHT22;9126;48.160;17.130;2022-10-03T00:50:36;14.70;73.00
18002;DHT22;9126;48.160;17.130;2022-10-03T00:53:15;14.70;73.00
18002;DHT22;9126;48.160;17.130;2022-10-03T00:55:57;14.70;72.90
18002;DHT22;9126;48.160;17.130;2022-10-03T00:58:40;14.70;72.90
18002;DHT22;9126;48.160;17.130;2022-10-03T01:01:24;14.70;72.90
18002;DHT22;9126;48.160;17.130;2022-10-03T01:04:03;14.70;73.00
18002;DHT22;9126;48.160;17.130;2022-10-03T01:06:40;14.60;73.00
18002;DHT22;9126;48.160;17.130;2022-10-03T01:09:21;14.60;73.10
18002;DHT22;9126;48.160;17.130;2022-10-03T01:12:08;14.60;73.20
18002;DHT22;9126;48.160;17.130;2022-10-03T01:14:58;14.60;73.20
18002;DHT22;9126;48.160;17.130;2022-10-03T01:17:35;14.60;73.20
18002;DHT22;9126;48.160;17.130;2022-10-03T01:20:20;14.60;73.20
18002;DHT22;9126;48.160;17.130;2022-10-03T01:23:19;14.50;73.30
18002;DHT22;9126;48.160;17.130;2022-10-03T01:25:54;14.50;73.30
18002;DHT22;9126;48.160;17.130;2022-10-03T01:28:38;14.50;73.30
18002;DHT22;9126;48.160;17.130;2022-10-03T01:31:29;14.40;73.30
18002;DHT22;9126;48.160;17.130;2022-10-03T01:34:03;14.40;74.00
18002;DHT22;9126;48.160;17.130;2022-10-03T01:36:37;14.40;73.40
18002;DHT22;9126;48.160;17.130;2022-10-03T01:39:13;14.40;73.50
18002;DHT22;9126;48.160;17.130;2022-10-03T01:41:48;14.40;73.50
18002;DHT22;9126;48.160;17.130;2022-10-03T01:44:20;14.40;73.40
18002;DHT22;9126;48.160;17.130;2022-10-03T01:46:53;14.40;73.40
18002;DHT22;9126;48.160;17.130;2022-10-03T01:49:26;14.30;73.20
18002;DHT22;9126;48.160;17.130;2022-10-03T01:52:02;14.30;73.20
18002;DHT22;9126;48.160;17.130;2022-10-03T01:54:39;14.30;73.20
18002;DHT22;9126;48.160;17.130;2022-10-03T01:57:14;14.30;73.20
18002;DHT22;9126;48.160;17.130;2022-10-03T01:59:52;14.30;73.00
18002;DHT22;9126;48.160;17.130;2022-10-03T02:02:27;14.40;73.60
18002;DHT22;9126;48.160;17.130;2022-10-03T02:05:02;14.40;72.80
18002;DHT22;9126;48.160;17.130;2022-10-03T02:07:39;14.40;72.60
18002;DHT22;9126;48.160;17.130;2022-10-03T02:10:19;14.40;72.40
18002;DHT22;9126;48.160;17.130;2022-10-03T02:12:55;14.30;72.40
18002;DHT22;9126;48.160;17.130;2022-10-03T02:15:27;14.30;72.40
18002;DHT22;9126;48.160;17.130;2022-10-03T02:18:06;14.40;72.30
18002;DHT22;9126;48.160;17.130;2022-10-03T02:20:44;14.40;72.10
18002;DHT22;9126;48.160;17.130;2022-10-03T02:23:25;14.30;72.00
18002;DHT22;9126;48.160;17.130;2022-10-03T02:26:24;14.30;72.00
18002;DHT22;9126;48.160;17.130;2022-10-03T02:29:11;14.30;71.90
18002;DHT22;9126;48.160;17.130;2022-10-03T02:32:15;14.30;71.70
18002;DHT22;9126;48.160;17.130;2022-10-03T02:38:23;14.40;71.30
18002;DHT22;9126;48.160;17.130;2022-10-03T02:41:26;14.40;71.20
18002;DHT22;9126;48.160;17.130;2022-10-03T02:44:45;14.30;71.20
18002;DHT22;9126;48.160;17.130;2022-10-03T02:48:05;14.30;71.30
18002;DHT22;9126;48.160;17.130;2022-10-03T02:51:30;14.20;71.40
18002;DHT22;9126;48.160;17.130;2022-10-03T02:54:41;14.20;71.40
18002;DHT22;9126;48.160;17.130;2022-10-03T03:04:37;14.10;71.60
18002;DHT22;9126;48.160;17.130;2022-10-03T03:07:43;14.10;71.60
18002;DHT22;9126;48.160;17.130;2022-10-03T03:11:08;14.10;71.70
18002;DHT22;9126;48.160;17.130;2022-10-03T03:17:31;14.00;71.60
18002;DHT22;9126;48.160;17.130;2022-10-03T03:20:31;14.00;71.70
18002;DHT22;9126;48.160;17.130;2022-10-03T03:23:42;14.00;71.60
18002;DHT22;9126;48.160;17.130;2022-10-03T03:26:45;14.10;71.50
18002;DHT22;9126;48.160;17.130;2022-10-03T03:29:41;14.10;71.30
18002;DHT22;9126;48.160;17.130;2022-10-03T03:32:43;14.10;71.30
18002;DHT22;9126;48.160;17.130;2022-10-03T03:35:43;14.00;71.30
18002;DHT22;9126;48.160;17.130;2022-10-03T03:38:40;14.00;71.40
18002;DHT22;9126;48.160;17.130;2022-10-03T03:41:45;14.10;71.40
18002;DHT22;9126;48.160;17.130;2022-10-03T03:45:05;14.20;71.20
18002;DHT22;9126;48.160;17.130;2022-10-03T03:48:03;14.30;71.00
18002;DHT22;9126;48.160;17.130;2022-10-03T03:51:06;14.40;70.80
18002;DHT22;9126;48.160;17.130;2022-10-03T03:54:34;14.40;70.50
18002;DHT22;9126;48.160;17.130;2022-10-03T03:57:55;14.40;70.30
18002;DHT22;9126;48.160;17.130;2022-10-03T04:04:04;14.00;70.20
18002;DHT22;9126;48.160;17.130;2022-10-03T04:07:03;13.90;70.50
18002;DHT22;9126;48.160;17.130;2022-10-03T04:10:16;13.80;70.80
18002;DHT22;9126;48.160;17.130;2022-10-03T04:13:33;13.70;71.10
18002;DHT22;9126;48.160;17.130;2022-10-03T04:16:35;13.60;71.40
18002;DHT22;9126;48.160;17.130;2022-10-03T04:19:58;13.60;71.80
18002;DHT22;9126;48.160;17.130;2022-10-03T04:23:01;13.50;72.00
18002;DHT22;9126;48.160;17.130;2022-10-03T04:26:05;13.50;72.30
18002;DHT22;9126;48.160;17.130;2022-10-03T04:29:16;13.50;72.50
18002;DHT22;9126;48.160;17.130;2022-10-03T04:32:13;13.50;72.60
18002;DHT22;9126;48.160;17.130;2022-10-03T04:35:23;13.50;72.70
18002;DHT22;9126;48.160;17.130;2022-10-03T04:38:25;13.60;72.70
18002;DHT22;9126;48.160;17.130;2022-10-03T04:41:28;13.50;72.70
18002;DHT22;9126;48.160;17.130;2022-10-03T04:44:28;13.60;72.90
18002;DHT22;9126;48.160;17.130;2022-10-03T04:47:24;13.60;72.70
18002;DHT22;9126;48.160;17.130;2022-10-03T04:50:29;13.60;73.20
18002;DHT22;9126;48.160;17.130;2022-10-03T04:53:25;13.70;72.60
18002;DHT22;9126;48.160;17.130;2022-10-03T04:56:33;13.70;72.40
18002;DHT22;9126;48.160;17.130;2022-10-03T04:59:35;13.70;72.20
18002;DHT22;9126;48.160;17.130;2022-10-03T05:02:45;13.80;72.20
18002;DHT22;9126;48.160;17.130;2022-10-03T05:05:44;13.80;72.00
18002;DHT22;9126;48.160;17.130;2022-10-03T05:08:40;13.70;71.90
18002;DHT22;9126;48.160;17.130;2022-10-03T05:11:40;13.70;72.00
18002;DHT22;9126;48.160;17.130;2022-10-03T05:14:44;13.70;72.10
18002;DHT22;9126;48.160;17.130;2022-10-03T05:17:43;13.70;72.10
18002;DHT22;9126;48.160;17.130;2022-10-03T05:20:40;13.70;72.00
18002;DHT22;9126;48.160;17.130;2022-10-03T05:23:40;13.60;71.90
18002;DHT22;9126;48.160;17.130;2022-10-03T05:26:40;13.60;72.10
18002;DHT22;9126;48.160;17.130;2022-10-03T05:29:35;13.60;72.20
18002;DHT22;9126;48.160;17.130;2022-10-03T05:32:29;13.50;72.10
18002;DHT22;9126;48.160;17.130;2022-10-03T05:35:29;13.60;72.30
18002;DHT22;9126;48.160;17.130;2022-10-03T05:38:43;13.60;72.10
18002;DHT22;9126;48.160;17.130;2022-10-03T05:41:36;13.60;72.00
18002;DHT22;9126;48.160;17.130;2022-10-03T05:44:37;13.70;72.00
18002;DHT22;9126;48.160;17.130;2022-10-03T05:47:29;13.80;71.90
18002;DHT22;9126;48.160;17.130;2022-10-03T05:54:03;13.90;71.60
18002;DHT22;9126;48.160;17.130;2022-10-03T05:57:08;13.90;71.60
18002;DHT22;9126;48.160;17.130;2022-10-03T06:00:07;13.90;71.60
18002;DHT22;9126;48.160;17.130;2022-10-03T06:06:17;14.00;71.40
18002;DHT22;9126;48.160;17.130;2022-10-03T06:12:37;14.10;71.30
18002;DHT22;9126;48.160;17.130;2022-10-03T06:15:51;14.10;71.30
18002;DHT22;9126;48.160;17.130;2022-10-03T06:19:03;14.20;71.20
18002;DHT22;9126;48.160;17.130;2022-10-03T06:22:33;14.30;70.90
18002;DHT22;9126;48.160;17.130;2022-10-03T06:26:25;14.30;70.60
18002;DHT22;9126;48.160;17.130;2022-10-03T06:33:25;14.50;69.90
18002;DHT22;9126;48.160;17.130;2022-10-03T06:40:25;14.40;69.60
18002;DHT22;9126;48.160;17.130;2022-10-03T06:43:43;14.50;69.40
18002;DHT22;9126;48.160;17.130;2022-10-03T06:46:55;14.50;69.10
18002;DHT22;9126;48.160;17.130;2022-10-03T06:53:33;14.60;68.70
18002;DHT22;9126;48.160;17.130;2022-10-03T06:56:47;14.60;68.50
18002;DHT22;9126;48.160;17.130;2022-10-03T07:00:00;14.60;68.30
18002;DHT22;9126;48.160;17.130;2022-10-03T07:03:04;14.70;68.10
18002;DHT22;9126;48.160;17.130;2022-10-03T07:06:11;14.80;67.80
18002;DHT22;9126;48.160;17.130;2022-10-03T07:09:33;14.80;67.60
18002;DHT22;9126;48.160;17.130;2022-10-03T07:12:50;14.80;67.20
18002;DHT22;9126;48.160;17.130;2022-10-03T07:16:10;15.10;66.90
18002;DHT22;9126;48.160;17.130;2022-10-03T07:22:57;15.60;65.50
18002;DHT22;9126;48.160;17.130;2022-10-03T07:33:21;15.90;63.30
18002;DHT22;9126;48.160;17.130;2022-10-03T07:36:31;16.20;62.50
18002;DHT22;9126;48.160;17.130;2022-10-03T07:40:10;16.30;61.80
18002;DHT22;9126;48.160;17.130;2022-10-03T07:43:27;16.50;61.30
18002;DHT22;9126;48.160;17.130;2022-10-03T07:50:13;16.50;60.40
18002;DHT22;9126;48.160;17.130;2022-10-03T07:56:51;16.40;60.20
18002;DHT22;9126;48.160;17.130;2022-10-03T08:00:09;16.50;60.00
18002;DHT22;9126;48.160;17.130;2022-10-03T08:03:45;16.60;59.90
18002;DHT22;9126;48.160;17.130;2022-10-03T08:06:39;16.60;59.60
18002;DHT22;9126;48.160;17.130;2022-10-03T08:09:53;16.70;59.40
18002;DHT22;9126;48.160;17.130;2022-10-03T08:16:19;16.70;59.10
18002;DHT22;9126;48.160;17.130;2022-10-03T08:19:21;16.60;59.20
18002;DHT22;9126;48.160;17.130;2022-10-03T08:22:41;16.70;59.20
18002;DHT22;9126;48.160;17.130;2022-10-03T08:25:57;16.70;59.00
18002;DHT22;9126;48.160;17.130;2022-10-03T08:33:10;16.60;58.80
18002;DHT22;9126;48.160;17.130;2022-10-03T08:47:02;17.30;57.90
18002;DHT22;9126;48.160;17.130;2022-10-03T08:50:26;17.40;57.60
18002;DHT22;9126;48.160;17.130;2022-10-03T08:53:44;17.30;57.50
18002;DHT22;9126;48.160;17.130;2022-10-03T08:57:06;17.60;57.20
18002;DHT22;9126;48.160;17.130;2022-10-03T09:03:38;17.70;56.60
18002;DHT22;9126;48.160;17.130;2022-10-03T09:07:06;17.80;56.40
18002;DHT22;9126;48.160;17.130;2022-10-03T09:10:21;18.00;56.00
18002;DHT22;9126;48.160;17.130;2022-10-03T09:13:37;18.10;55.80
18002;DHT22;9126;48.160;17.130;2022-10-03T09:20:19;18.00;55.20
18002;DHT22;9126;48.160;17.130;2022-10-03T09:23:35;18.00;55.00
18002;DHT22;9126;48.160;17.130;2022-10-03T09:27:00;18.10;54.60
18002;DHT22;9126;48.160;17.130;2022-10-03T09:51:22;18.40;54.80
18002;DHT22;9126;48.160;17.130;2022-10-03T09:54:35;18.50;54.10
18002;DHT22;9126;48.160;17.130;2022-10-03T10:01:21;18.30;53.80
18002;DHT22;9126;48.160;17.130;2022-10-03T10:04:36;18.20;53.50
18002;DHT22;9126;48.160;17.130;2022-10-03T10:07:58;18.30;53.30
18002;DHT22;9126;48.160;17.130;2022-10-03T10:14:44;18.60;52.60
18002;DHT22;9126;48.160;17.130;2022-10-03T10:18:27;18.40;52.50
18002;DHT22;9126;48.160;17.130;2022-10-03T10:38:29;18.10;51.50
18002;DHT22;9126;48.160;17.130;2022-10-03T10:45:40;18.00;51.70
18002;DHT22;9126;48.160;17.130;2022-10-03T11:30:42;17.80;54.40
18002;DHT22;9126;48.160;17.130;2022-10-03T11:37:28;18.10;52.80
18002;DHT22;9126;48.160;17.130;2022-10-03T11:40:34;18.30;52.40
18002;DHT22;9126;48.160;17.130;2022-10-03T11:43:50;18.40;51.90
18002;DHT22;9126;48.160;17.130;2022-10-03T11:46:53;18.40;51.60
18002;DHT22;9126;48.160;17.130;2022-10-03T11:53:11;18.60;51.80
18002;DHT22;9126;48.160;17.130;2022-10-03T11:56:18;18.40;51.80
18002;DHT22;9126;48.160;17.130;2022-10-03T11:59:42;17.90;52.40
18002;DHT22;9126;48.160;17.130;2022-10-03T12:02:54;17.70;53.50
18002;DHT22;9126;48.160;17.130;2022-10-03T12:05:51;17.60;54.20
18002;DHT22;9126;48.160;17.130;2022-10-03T12:09:07;17.50;54.40
18002;DHT22;9126;48.160;17.130;2022-10-03T12:12:02;17.50;54.70
18002;DHT22;9126;48.160;17.130;2022-10-03T12:15:01;17.60;54.90
18002;DHT22;9126;48.160;17.130;2022-10-03T12:18:08;17.60;54.60
18002;DHT22;9126;48.160;17.130;2022-10-03T12:21:06;17.90;54.70
18002;DHT22;9126;48.160;17.130;2022-10-03T12:24:02;18.40;54.60
18002;DHT22;9126;48.160;17.130;2022-10-03T12:26:57;18.60;54.20
18002;DHT22;9126;48.160;17.130;2022-10-03T12:33:11;19.00;52.60
18002;DHT22;9126;48.160;17.130;2022-10-03T12:36:10;19.20;51.70
18002;DHT22;9126;48.160;17.130;2022-10-03T12:39:22;19.20;51.20
18002;DHT22;9126;48.160;17.130;2022-10-03T12:42:25;19.20;51.40
18002;DHT22;9126;48.160;17.130;2022-10-03T12:45:22;19.20;51.10
18002;DHT22;9126;48.160;17.130;2022-10-03T12:48:34;19.10;50.80
18002;DHT22;9126;48.160;17.130;2022-10-03T12:51:38;19.00;50.20
18002;DHT22;9126;48.160;17.130;2022-10-03T12:54:47;19.20;50.00
18002;DHT22;9126;48.160;17.130;2022-10-03T12:57:49;19.30;49.60
18002;DHT22;9126;48.160;17.130;2022-10-03T13:00:55;19.20;49.40
18002;DHT22;9126;48.160;17.130;2022-10-03T13:03:53;18.90;49.30
18002;DHT22;9126;48.160;17.130;2022-10-03T13:06:49;18.80;49.40
18002;DHT22;9126;48.160;17.130;2022-10-03T13:10:03;18.70;49.60
18002;DHT22;9126;48.160;17.130;2022-10-03T13:16:49;18.50;49.40
18002;DHT22;9126;48.160;17.130;2022-10-03T13:19:52;18.60;49.10
18002;DHT22;9126;48.160;17.130;2022-10-03T13:22:33;18.70;48.70
18002;DHT22;9126;48.160;17.130;2022-10-03T13:25:15;18.70;48.60
18002;DHT22;9126;48.160;17.130;2022-10-03T13:27:59;18.70;48.40
18002;DHT22;9126;48.160;17.130;2022-10-03T13:31:02;18.80;48.30
18002;DHT22;9126;48.160;17.130;2022-10-03T13:34:21;18.90;48.20
18002;DHT22;9126;48.160;17.130;2022-10-03T13:37:14;19.20;48.00
18002;DHT22;9126;48.160;17.130;2022-10-03T13:39:51;19.30;47.90
18002;DHT22;9126;48.160;17.130;2022-10-03T13:42:33;19.30;47.80
18002;DHT22;9126;48.160;17.130;2022-10-03T13:45:11;19.20;47.70
18002;DHT22;9126;48.160;17.130;2022-10-03T13:47:49;19.20;47.70
18002;DHT22;9126;48.160;17.130;2022-10-03T13:50:26;19.30;47.60
18002;DHT22;9126;48.160;17.130;2022-10-03T13:53:02;19.40;47.40
18002;DHT22;9126;48.160;17.130;2022-10-03T13:55:54;19.30;47.20
18002;DHT22;9126;48.160;17.130;2022-10-03T13:58:52;19.20;47.30
18002;DHT22;9126;48.160;17.130;2022-10-03T14:01:36;19.40;47.10
18002;DHT22;9126;48.160;17.130;2022-10-03T14:04:49;19.40;46.80
18002;DHT22;9126;48.160;17.130;2022-10-03T14:08:08;19.60;46.50
18002;DHT22;9126;48.160;17.130;2022-10-03T14:11:19;19.80;46.00
18002;DHT22;9126;48.160;17.130;2022-10-03T14:17:01;20.20;45.00
18002;DHT22;9126;48.160;17.130;2022-10-03T14:19:44;20.20;45.10
18002;DHT22;9126;48.160;17.130;2022-10-03T14:22:39;20.30;45.00
18002;DHT22;9126;48.160;17.130;2022-10-03T14:33:03;20.10;44.80
18002;DHT22;9126;48.160;17.130;2022-10-03T14:40:15;20.40;44.90
18002;DHT22;9126;48.160;17.130;2022-10-03T14:43:58;20.90;44.50
18002;DHT22;9126;48.160;17.130;2022-10-03T14:47:24;21.20;44.30
18002;DHT22;9126;48.160;17.130;2022-10-03T14:53:31;21.70;43.80
18002;DHT22;9126;48.160;17.130;2022-10-03T14:56:08;21.70;43.80
18002;DHT22;9126;48.160;17.130;2022-10-03T14:58:43;21.80;43.70
18002;DHT22;9126;48.160;17.130;2022-10-03T15:01:16;21.80;43.70
18002;DHT22;9126;48.160;17.130;2022-10-03T15:03:53;21.60;43.70
18002;DHT22;9126;48.160;17.130;2022-10-03T15:06:39;21.60;43.90
18002;DHT22;9126;48.160;17.130;2022-10-03T15:09:19;21.50;44.00
18002;DHT22;9126;48.160;17.130;2022-10-03T15:11:49;21.40;44.30
18002;DHT22;9126;48.160;17.130;2022-10-03T15:14:19;21.40;44.30
18002;DHT22;9126;48.160;17.130;2022-10-03T15:17:16;21.30;44.40
18002;DHT22;9126;48.160;17.130;2022-10-03T15:19:46;21.20;44.60
18002;DHT22;9126;48.160;17.130;2022-10-03T15:22:27;21.00;44.70
18002;DHT22;9126;48.160;17.130;2022-10-03T15:25:04;20.90;44.80
18002;DHT22;9126;48.160;17.130;2022-10-03T15:27:32;20.80;44.80
18002;DHT22;9126;48.160;17.130;2022-10-03T15:30:02;20.50;44.90
18002;DHT22;9126;48.160;17.130;2022-10-03T15:35:31;19.90;45.10
18002;DHT22;9126;48.160;17.130;2022-10-03T15:38:07;19.70;45.40
18002;DHT22;9126;48.160;17.130;2022-10-03T15:40:43;19.50;45.50
18002;DHT22;9126;48.160;17.130;2022-10-03T15:43:33;19.30;45.80
18002;DHT22;9126;48.160;17.130;2022-10-03T15:46:19;19.30;45.90
18002;DHT22;9126;48.160;17.130;2022-10-03T15:49:16;19.20;45.90
18002;DHT22;9126;48.160;17.130;2022-10-03T16:17:22;18.20;47.60
18002;DHT22;9126;48.160;17.130;2022-10-03T16:20:58;17.90;47.80
18002;DHT22;9126;48.160;17.130;2022-10-03T16:25:04;17.70;48.20
18002;DHT22;9126;48.160;17.130;2022-10-03T16:29:10;17.50;48.40
18002;DHT22;9126;48.160;17.130;2022-10-03T16:35:40;17.50;49.00
18002;DHT22;9126;48.160;17.130;2022-10-03T16:39:31;17.20;49.10
18002;DHT22;9126;48.160;17.130;2022-10-03T16:43:03;17.20;49.40
18002;DHT22;9126;48.160;17.130;2022-10-03T16:46:10;17.50;49.40
18002;DHT22;9126;48.160;17.130;2022-10-03T16:49:40;17.30;49.50
18002;DHT22;9126;48.160;17.130;2022-10-03T16:52:39;17.40;49.60
18002;DHT22;9126;48.160;17.130;2022-10-03T16:55:14;17.50;49.70
18002;DHT22;9126;48.160;17.130;2022-10-03T16:57:48;17.40;49.80
18002;DHT22;9126;48.160;17.130;2022-10-03T17:00:21;17.40;49.90
18002;DHT22;9126;48.160;17.130;2022-10-03T17:02:50;17.20;50.00
18002;DHT22;9126;48.160;17.130;2022-10-03T17:05:23;17.20;50.20
18002;DHT22;9126;48.160;17.130;2022-10-03T17:08:09;17.10;50.50
18002;DHT22;9126;48.160;17.130;2022-10-03T17:10:51;17.00;51.30
18002;DHT22;9126;48.160;17.130;2022-10-03T17:13:29;17.00;51.00
18002;DHT22;9126;48.160;17.130;2022-10-03T17:16:16;17.10;51.10
18002;DHT22;9126;48.160;17.130;2022-10-03T17:19:14;17.10;51.30
18002;DHT22;9126;48.160;17.130;2022-10-03T17:26:07;17.00;51.90
18002;DHT22;9126;48.160;17.130;2022-10-03T17:28:52;16.80;52.20
18002;DHT22;9126;48.160;17.130;2022-10-03T17:31:43;16.80;52.30
18002;DHT22;9126;48.160;17.130;2022-10-03T17:34:17;16.70;52.30
18002;DHT22;9126;48.160;17.130;2022-10-03T17:37:06;16.60;52.50
18002;DHT22;9126;48.160;17.130;2022-10-03T17:39:52;16.50;52.50
18002;DHT22;9126;48.160;17.130;2022-10-03T17:42:40;16.60;52.50
18002;DHT22;9126;48.160;17.130;2022-10-03T17:45:27;16.50;52.40
18002;DHT22;9126;48.160;17.130;2022-10-03T17:48:22;16.50;52.30
18002;DHT22;9126;48.160;17.130;2022-10-03T17:51:47;16.40;52.30
18002;DHT22;9126;48.160;17.130;2022-10-03T17:54:31;16.40;52.40
18002;DHT22;9126;48.160;17.130;2022-10-03T17:57:15;16.40;52.30
18002;DHT22;9126;48.160;17.130;2022-10-03T18:00:14;16.40;52.40
18002;DHT22;9126;48.160;17.130;2022-10-03T18:03:10;16.30;52.40
18002;DHT22;9126;48.160;17.130;2022-10-03T18:06:23;16.30;52.50
18002;DHT22;9126;48.160;17.130;2022-10-03T18:09:37;16.10;52.80
18002;DHT22;9126;48.160;17.130;2022-10-03T18:12:30;16.20;53.00
18002;DHT22;9126;48.160;17.130;2022-10-03T18:15:26;16.30;53.20
18002;DHT22;9126;48.160;17.130;2022-10-03T18:18:41;16.20;53.30
18002;DHT22;9126;48.160;17.130;2022-10-03T18:21:23;16.20;53.50
18002;DHT22;9126;48.160;17.130;2022-10-03T18:27:15;16.40;53.70
18002;DHT22;9126;48.160;17.130;2022-10-03T18:29:58;16.40;53.70
18002;DHT22;9126;48.160;17.130;2022-10-03T18:32:37;16.40;53.90
18002;DHT22;9126;48.160;17.130;2022-10-03T18:35:11;16.50;53.90
18002;DHT22;9126;48.160;17.130;2022-10-03T18:37:53;16.50;53.90
18002;DHT22;9126;48.160;17.130;2022-10-03T18:40:34;16.50;54.00
18002;DHT22;9126;48.160;17.130;2022-10-03T18:43:06;16.50;54.10
18002;DHT22;9126;48.160;17.130;2022-10-03T18:45:47;16.50;54.20
18002;DHT22;9126;48.160;17.130;2022-10-03T18:48:59;16.50;54.20
18002;DHT22;9126;48.160;17.130;2022-10-03T18:51:31;16.50;54.20
18002;DHT22;9126;48.160;17.130;2022-10-03T18:54:39;16.50;54.20
18002;DHT22;9126;48.160;17.130;2022-10-03T18:57:38;16.40;54.40
18002;DHT22;9126;48.160;17.130;2022-10-03T19:00:19;16.40;54.50
18002;DHT22;9126;48.160;17.130;2022-10-03T19:02:51;16.40;54.60
18002;DHT22;9126;48.160;17.130;2022-10-03T19:05:29;16.30;54.60
18002;DHT22;9126;48.160;17.130;2022-10-03T19:08:09;16.30;54.80
18002;DHT22;9126;48.160;17.130;2022-10-03T19:10:44;16.20;55.00
18002;DHT22;9126;48.160;17.130;2022-10-03T19:19:52;16.20;55.20
18002;DHT22;9126;48.160;17.130;2022-10-03T19:22:35;16.20;55.20
18002;DHT22;9126;48.160;17.130;2022-10-03T19:25:17;16.30;55.40
18002;DHT22;9126;48.160;17.130;2022-10-03T19:27:51;16.30;55.50
18002;DHT22;9126;48.160;17.130;2022-10-03T19:30:21;16.30;55.50
18002;DHT22;9126;48.160;17.130;2022-10-03T19:32:54;16.30;55.50
18002;DHT22;9126;48.160;17.130;2022-10-03T19:35:24;16.30;55.60
18002;DHT22;9126;48.160;17.130;2022-10-03T19:37:54;16.30;55.60
18002;DHT22;9126;48.160;17.130;2022-10-03T19:40:34;16.20;55.70
18002;DHT22;9126;48.160;17.130;2022-10-03T19:43:30;16.20;55.80
18002;DHT22;9126;48.160;17.130;2022-10-03T19:46:21;16.20;55.90
18002;DHT22;9126;48.160;17.130;2022-10-03T19:49:05;16.20;56.00
18002;DHT22;9126;48.160;17.130;2022-10-03T19:51:35;16.20;56.10
18002;DHT22;9126;48.160;17.130;2022-10-03T19:54:25;16.20;56.20
18002;DHT22;9126;48.160;17.130;2022-10-03T19:56:52;16.10;56.20
18002;DHT22;9126;48.160;17.130;2022-10-03T19:59:35;16.00;56.30
18002;DHT22;9126;48.160;17.130;2022-10-03T20:02:04;16.10;56.40
18002;DHT22;9126;48.160;17.130;2022-10-03T20:04:34;16.00;56.40
18002;DHT22;9126;48.160;17.130;2022-10-03T20:07:05;16.00;56.40
18002;DHT22;9126;48.160;17.130;2022-10-03T20:09:39;16.00;56.50
18002;DHT22;9126;48.160;17.130;2022-10-03T20:12:10;16.00;56.60
18002;DHT22;9126;48.160;17.130;2022-10-03T20:14:40;15.90;56.70
18002;DHT22;9126;48.160;17.130;2022-10-03T20:17:11;15.90;56.70
18002;DHT22;9126;48.160;17.130;2022-10-03T20:19:48;16.00;56.80
18002;DHT22;9126;48.160;17.130;2022-10-03T20:22:20;16.00;56.70
18002;DHT22;9126;48.160;17.130;2022-10-03T20:24:51;16.20;56.60
18002;DHT22;9126;48.160;17.130;2022-10-03T20:27:27;16.20;56.50
18002;DHT22;9126;48.160;17.130;2022-10-03T20:30:05;16.20;56.50
18002;DHT22;9126;48.160;17.130;2022-10-03T20:32:35;16.20;56.50
18002;DHT22;9126;48.160;17.130;2022-10-03T20:35:10;16.20;56.40
18002;DHT22;9126;48.160;17.130;2022-10-03T20:37:45;16.30;56.50
18002;DHT22;9126;48.160;17.130;2022-10-03T20:40:25;16.20;56.40
18002;DHT22;9126;48.160;17.130;2022-10-03T20:43:07;16.00;56.60
18002;DHT22;9126;48.160;17.130;2022-10-03T20:45:43;15.90;56.80
18002;DHT22;9126;48.160;17.130;2022-10-03T20:48:17;15.90;57.00
18002;DHT22;9126;48.160;17.130;2022-10-03T20:50:48;15.90;57.00
18002;DHT22;9126;48.160;17.130;2022-10-03T20:53:17;15.90;57.00
18002;DHT22;9126;48.160;17.130;2022-10-03T20:55:53;15.90;57.00
18002;DHT22;9126;48.160;17.130;2022-10-03T20:58:28;15.90;57.10
18002;DHT22;9126;48.160;17.130;2022-10-03T21:01:27;15.90;57.20
18002;DHT22;9126;48.160;17.130;2022-10-03T21:04:12;15.90;57.30
18002;DHT22;9126;48.160;17.130;2022-10-03T21:06:50;15.90;57.30
18002;DHT22;9126;48.160;17.130;2022-10-03T21:09:20;15.90;57.30
18002;DHT22;9126;48.160;17.130;2022-10-03T21:11:53;15.90;57.40
18002;DHT22;9126;48.160;17.130;2022-10-03T21:14:23;16.00;57.40
18002;DHT22;9126;48.160;17.130;2022-10-03T21:16:53;16.00;57.30
18002;DHT22;9126;48.160;17.130;2022-10-03T21:19:35;16.00;57.30
18002;DHT22;9126;48.160;17.130;2022-10-03T21:22:05;16.00;57.40
18002;DHT22;9126;48.160;17.130;2022-10-03T21:24:40;15.90;57.40
18002;DHT22;9126;48.160;17.130;2022-10-03T21:27:13;15.90;57.50
18002;DHT22;9126;48.160;17.130;2022-10-03T21:29:53;15.80;57.60
18002;DHT22;9126;48.160;17.130;2022-10-03T21:32:30;15.80;57.70
18002;DHT22;9126;48.160;17.130;2022-10-03T21:35:03;15.90;57.70
18002;DHT22;9126;48.160;17.130;2022-10-03T21:37:41;15.90;57.70
18002;DHT22;9126;48.160;17.130;2022-10-03T21:40:17;15.90;57.70
18002;DHT22;9126;48.160;17.130;2022-10-03T21:42:56;15.80;57.70
18002;DHT22;9126;48.160;17.130;2022-10-03T21:45:38;15.80;57.80
18002;DHT22;9126;48.160;17.130;2022-10-03T21:48:13;15.80;57.80
18002;DHT22;9126;48.160;17.130;2022-10-03T21:50:48;15.70;57.90
18002;DHT22;9126;48.160;17.130;2022-10-03T21:53:20;15.60;58.00
18002;DHT22;9126;48.160;17.130;2022-10-03T21:59:25;15.40;58.50
18002;DHT22;9126;48.160;17.130;2022-10-03T22:02:00;15.40;58.70
18002;DHT22;9126;48.160;17.130;2022-10-03T22:04:35;15.30;58.80
18002;DHT22;9126;48.160;17.130;2022-10-03T22:07:09;15.20;59.00
18002;DHT22;9126;48.160;17.130;2022-10-03T22:09:47;15.20;59.20
18002;DHT22;9126;48.160;17.130;2022-10-03T22:12:15;15.30;59.30
18002;DHT22;9126;48.160;17.130;2022-10-03T22:14:49;15.20;59.30
18002;DHT22;9126;48.160;17.130;2022-10-03T22:17:25;15.20;59.50
18002;DHT22;9126;48.160;17.130;2022-10-03T22:20:04;15.10;59.60
18002;DHT22;9126;48.160;17.130;2022-10-03T22:22:41;15.10;59.70
18002;DHT22;9126;48.160;17.130;2022-10-03T22:25:34;15.00;59.80
18002;DHT22;9126;48.160;17.130;2022-10-03T22:28:12;15.00;59.90
18002;DHT22;9126;48.160;17.130;2022-10-03T22:30:46;14.90;60.00
18002;DHT22;9126;48.160;17.130;2022-10-03T22:33:25;14.90;60.20